createdAt,value
2022-10-05T00:02:24.703Z,5.83
2022-10-05T00:04:56.909Z,5.47
2022-10-05T00:07:24.899Z,6.43
2022-10-05T00:10:00.728Z,3.90
2022-10-05T00:12:29.788Z,4.73
2022-10-05T00:15:00.555Z,4.10
2022-10-05T00:17:29.437Z,4.60
2022-10-05T00:19:56.391Z,5.37
2022-10-05T00:22:28.934Z,5.10
2022-10-05T00:24:59.890Z,4.30
2022-10-05T00:27:36.478Z,5.53
2022-10-05T00:30:16.432Z,6.43
2022-10-05T00:32:43.352Z,5.83
2022-10-05T00:35:11.223Z,4.47
2022-10-05T00:37:38.511Z,6.13
2022-10-05T00:40:20.124Z,6.00
2022-10-05T00:43:09.492Z,9.90
2022-10-05T00:45:42.622Z,6.57
2022-10-05T00:48:37.071Z,5.87
2022-10-05T00:51:17.433Z,5.53
2022-10-05T00:53:58.113Z,4.83
2022-10-05T00:56:33.602Z,8.50
2022-10-05T00:59:12.089Z,5.60
2022-10-05T01:01:52.546Z,5.00
2022-10-05T01:04:59.102Z,5.40
2022-10-05T01:07:56.895Z,10.83
2022-10-05T01:10:37.869Z,5.77
2022-10-05T01:13:09.985Z,6.50
2022-10-05T01:15:45.342Z,4.80
2022-10-05T01:18:14.758Z,4.53
2022-10-05T01:21:15.415Z,4.57
2022-10-05T01:23:47.787Z,4.60
2022-10-05T01:26:41.721Z,3.37
2022-10-05T01:29:15.420Z,3.70
2022-10-05T01:31:47.312Z,4.00
2022-10-05T01:34:39.772Z,4.43
2022-10-05T01:37:12.423Z,4.60
2022-10-05T01:40:05.094Z,4.40
2022-10-05T01:42:47.667Z,3.27
2022-10-05T01:45:29.322Z,3.23
2022-10-05T01:48:40.326Z,3.73
2022-10-05T01:51:52.176Z,4.20
2022-10-05T01:54:50.680Z,3.07
2022-10-05T01:57:41.503Z,3.37
2022-10-05T02:00:12.804Z,3.37
2022-10-05T02:02:58.298Z,2.70
2022-10-05T02:05:32.849Z,2.80
2022-10-05T02:08:08.196Z,2.70
2022-10-05T02:10:42.236Z,2.50
2022-10-05T02:13:32.424Z,2.53
2022-10-05T02:16:05.136Z,2.53
2022-10-05T02:18:38.477Z,2.60
2022-10-05T02:21:05.881Z,4.23
2022-10-05T02:23:35.546Z,3.10
2022-10-05T02:26:03.451Z,3.40
2022-10-05T02:28:38.643Z,3.27
2022-10-05T02:31:12.618Z,3.07
2022-10-05T02:33:39.476Z,3.70
2022-10-05T02:36:32.170Z,3.50
2022-10-05T02:38:59.377Z,4.23
2022-10-05T02:41:49.350Z,3.50
2022-10-05T02:44:25.925Z,3.80
2022-10-05T02:47:07.615Z,3.93
2022-10-05T02:50:32.548Z,3.60
2022-10-05T02:53:19.344Z,3.77
2022-10-05T02:55:54.720Z,3.20
2022-10-05T02:58:33.702Z,3.33
2022-10-05T03:01:26.919Z,4.73
2022-10-05T03:04:19.174Z,3.70
2022-10-05T03:07:24.305Z,3.20
2022-10-05T03:09:56.631Z,3.23
2022-10-05T03:12:45.395Z,2.90
2022-10-05T03:16:08.695Z,3.17
2022-10-05T03:19:23.047Z,4.77
2022-10-05T03:22:11.050Z,3.63
2022-10-05T03:25:14.607Z,5.30
2022-10-05T03:27:56.537Z,4.07
2022-10-05T03:30:25.687Z,4.37
2022-10-05T03:33:30.785Z,5.00
2022-10-05T03:36:12.387Z,3.33
2022-10-05T03:39:01.164Z,4.23
2022-10-05T03:41:41.571Z,6.20
2022-10-05T03:44:36.553Z,3.70
2022-10-05T03:47:14.394Z,3.27
2022-10-05T03:49:59.231Z,4.80
2022-10-05T03:52:46.859Z,10.53
2022-10-05T03:55:18.081Z,4.00
2022-10-05T03:57:46.624Z,3.63
2022-10-05T04:00:25.603Z,7.00
2022-10-05T04:03:25.908Z,9.30
2022-10-05T04:05:58.381Z,9.90
2022-10-05T04:09:10.284Z,23.33
2022-10-05T04:11:46.657Z,5.53
2022-10-05T04:14:17.828Z,5.97
2022-10-05T04:16:56.700Z,4.27
2022-10-05T04:19:39.030Z,7.97
2022-10-05T04:22:26.199Z,4.23
2022-10-05T04:25:06.960Z,4.27
2022-10-05T04:27:45.751Z,4.90
2022-10-05T04:30:14.389Z,4.13
2022-10-05T04:32:47.870Z,3.80
2022-10-05T04:35:14.595Z,5.07
2022-10-05T04:38:05.932Z,4.07
2022-10-05T04:40:50.627Z,3.53
2022-10-05T04:43:54.551Z,4.13
2022-10-05T04:46:47.293Z,5.90
2022-10-05T04:49:43.681Z,3.90
2022-10-05T04:52:25.439Z,3.30
2022-10-05T04:55:22.646Z,4.67
2022-10-05T04:58:06.163Z,3.60
2022-10-05T05:00:53.034Z,6.50
2022-10-05T05:03:29.198Z,5.00
2022-10-05T05:06:17.956Z,5.03
2022-10-05T05:09:03.718Z,5.27
2022-10-05T05:11:54.627Z,4.13
2022-10-05T05:14:54.448Z,3.60
2022-10-05T05:17:29.712Z,3.40
2022-10-05T05:20:41.656Z,7.23
2022-10-05T05:23:50.495Z,3.20
2022-10-05T05:26:38.881Z,3.87
2022-10-05T05:29:19.810Z,4.97
2022-10-05T05:31:49.527Z,5.50
2022-10-05T05:34:37.982Z,3.83
2022-10-05T05:37:41.508Z,3.53
2022-10-05T05:40:21.324Z,3.97
2022-10-05T05:42:50.951Z,4.93
2022-10-05T05:45:43.965Z,4.57
2022-10-05T05:48:33.188Z,4.00
2022-10-05T05:51:27.544Z,7.80
2022-10-05T05:54:15.550Z,4.57
2022-10-05T05:56:48.167Z,5.87
2022-10-05T05:59:21.830Z,4.93
2022-10-05T06:01:56.541Z,4.43
2022-10-05T06:04:36.223Z,6.17
2022-10-05T06:07:04.799Z,5.63
2022-10-05T06:09:43.454Z,5.97
2022-10-05T06:12:16.293Z,6.57
2022-10-05T06:14:51.207Z,6.63
2022-10-05T06:17:50.147Z,8.07
2022-10-05T06:20:28.467Z,11.60
2022-10-05T06:23:00.540Z,9.97
2022-10-05T06:26:01.034Z,8.37
2022-10-05T06:28:30.087Z,9.73
2022-10-05T06:31:29.679Z,13.33
2022-10-05T06:34:31.778Z,6.97
2022-10-05T06:37:08.537Z,7.23
2022-10-05T06:39:50.499Z,6.97
2022-10-05T06:42:40.594Z,7.80
2022-10-05T06:45:12.789Z,5.27
2022-10-05T06:47:47.366Z,5.50
2022-10-05T06:50:33.062Z,4.37
2022-10-05T06:53:20.304Z,6.80
2022-10-05T06:56:08.796Z,4.93
2022-10-05T06:59:00.206Z,5.23
2022-10-05T07:01:50.985Z,5.67
2022-10-05T07:04:59.593Z,4.90
2022-10-05T07:07:53.458Z,5.97
2022-10-05T07:10:57.741Z,4.37
2022-10-05T07:13:39.163Z,5.20
2022-10-05T07:16:24.413Z,7.30
2022-10-05T07:19:05.493Z,6.80
2022-10-05T07:21:44.459Z,8.70
2022-10-05T07:24:31.756Z,5.17
2022-10-05T07:27:18.776Z,4.70
2022-10-05T07:30:02.676Z,6.67
2022-10-05T07:32:33.820Z,5.43
2022-10-05T07:35:45.578Z,7.70
2022-10-05T07:38:27.991Z,5.13
2022-10-05T07:41:04.458Z,5.13
2022-10-05T07:44:00.996Z,11.07
2022-10-05T07:46:38.427Z,7.10
2022-10-05T07:49:16.624Z,5.60
2022-10-05T07:51:51.064Z,7.77
2022-10-05T07:54:42.387Z,6.60
2022-10-05T07:57:25.944Z,7.20
2022-10-05T08:00:01.718Z,5.00
2022-10-05T08:02:38.886Z,5.57
2022-10-05T08:05:31.698Z,5.70
2022-10-05T08:08:25.572Z,5.53
2022-10-05T08:10:59.793Z,6.17
2022-10-05T08:13:44.468Z,9.37
2022-10-05T08:16:12.670Z,7.07
2022-10-05T08:19:08.537Z,5.27
2022-10-05T08:21:42.255Z,6.30
2022-10-05T08:24:38.780Z,7.33
2022-10-05T08:27:22.094Z,6.63
2022-10-05T08:30:04.924Z,6.27
2022-10-05T08:32:40.301Z,6.47
2022-10-05T08:35:36.519Z,4.83
2022-10-05T08:38:11.381Z,6.33
2022-10-05T08:40:46.999Z,4.60
2022-10-05T08:43:47.271Z,4.83
2022-10-05T08:46:35.092Z,7.03
2022-10-05T08:49:19.681Z,4.93
2022-10-05T08:52:28.985Z,5.93
2022-10-05T08:55:10.376Z,5.23
2022-10-05T08:58:07.469Z,4.37
2022-10-05T09:01:03.753Z,6.97
2022-10-05T09:03:51.575Z,8.23
2022-10-05T09:06:45.071Z,5.80
2022-10-05T09:09:48.899Z,5.20
2022-10-05T09:12:24.269Z,4.70
2022-10-05T09:15:26.973Z,5.23
2022-10-05T09:18:11.645Z,4.73
2022-10-05T09:20:53.520Z,4.37
2022-10-05T09:23:45.037Z,5.40
2022-10-05T09:26:31.583Z,4.13
2022-10-05T09:29:29.431Z,4.83
2022-10-05T09:32:33.711Z,4.37
2022-10-05T09:35:09.276Z,4.97
2022-10-05T09:37:59.905Z,4.20
2022-10-05T09:40:54.226Z,5.97
2022-10-05T09:43:29.683Z,4.20
2022-10-05T09:46:08.436Z,4.07
2022-10-05T09:49:10.902Z,4.13
2022-10-05T09:52:09.250Z,4.07
2022-10-05T09:54:47.781Z,3.43
2022-10-05T09:57:36.167Z,5.43
2022-10-05T10:00:16.500Z,6.57
2022-10-05T10:02:53.012Z,4.00
2022-10-05T10:05:34.573Z,5.47
2022-10-05T10:08:13.146Z,3.77
2022-10-05T10:10:54.869Z,7.30
2022-10-05T10:13:36.235Z,3.67
2022-10-05T10:16:08.815Z,3.60
2022-10-05T10:19:12.767Z,3.70
2022-10-05T10:21:42.340Z,3.47
2022-10-05T10:24:42.514Z,3.70
2022-10-05T10:27:16.296Z,2.90
2022-10-05T10:29:42.898Z,3.83
2022-10-05T10:32:34.336Z,4.30
2022-10-05T10:35:20.303Z,4.63
2022-10-05T10:37:52.921Z,3.20
2022-10-05T10:40:31.383Z,3.50
2022-10-05T10:43:16.195Z,4.57
2022-10-05T10:45:51.869Z,3.80
2022-10-05T10:48:18.539Z,3.00
2022-10-05T10:50:48.034Z,3.10
2022-10-05T10:53:52.299Z,3.30
2022-10-05T10:56:40.751Z,4.30
2022-10-05T10:59:29.235Z,2.30
2022-10-05T11:02:38.990Z,4.70
2022-10-05T11:05:14.946Z,4.30
2022-10-05T11:07:44.392Z,3.67
2022-10-05T11:10:46.049Z,2.20
2022-10-05T11:13:34.164Z,2.70
2022-10-05T11:16:19.925Z,2.97
2022-10-05T11:19:04.659Z,3.33
2022-10-05T11:21:53.328Z,1.90
2022-10-05T11:24:52.172Z,1.60
2022-10-05T11:27:52.610Z,1.73
2022-10-05T11:30:56.537Z,2.80
2022-10-05T11:33:45.064Z,2.30
2022-10-05T11:36:37.663Z,1.47
2022-10-05T11:39:33.326Z,1.90
2022-10-05T11:42:38.879Z,5.07
2022-10-05T11:45:24.214Z,1.73
2022-10-05T11:48:21.658Z,2.83
2022-10-05T11:51:03.565Z,2.10
2022-10-05T11:53:41.353Z,1.37
2022-10-05T11:56:52.340Z,1.10
2022-10-05T11:59:34.611Z,4.53
2022-10-05T12:02:24.289Z,3.03
2022-10-05T12:05:14.863Z,1.73
2022-10-05T12:07:50.349Z,1.93
2022-10-05T12:10:38.138Z,2.87
2022-10-05T12:13:19.217Z,1.20
2022-10-05T12:16:02.722Z,1.80
2022-10-05T12:18:32.688Z,1.13
2022-10-05T12:21:02.524Z,4.00
2022-10-05T12:23:34.574Z,1.73
2022-10-05T12:26:11.040Z,1.67
2022-10-05T12:28:52.238Z,1.87
2022-10-05T12:31:34.097Z,2.90
2022-10-05T12:34:03.991Z,1.37
2022-10-05T12:37:03.000Z,2.20
2022-10-05T12:40:06.117Z,1.07
2022-10-05T12:42:56.720Z,1.60
2022-10-05T12:45:54.760Z,2.80
2022-10-05T12:48:53.092Z,1.10
2022-10-05T12:51:32.032Z,1.90
2022-10-05T12:54:10.592Z,1.17
2022-10-05T12:56:49.165Z,1.50
2022-10-05T12:59:34.170Z,1.10
2022-10-05T13:02:12.952Z,2.30
2022-10-05T13:04:55.870Z,2.00
2022-10-05T13:07:31.373Z,2.20
2022-10-05T13:10:16.145Z,0.97
2022-10-05T13:13:08.564Z,1.33
2022-10-05T13:15:52.971Z,2.40
2022-10-05T13:18:44.357Z,0.70
2022-10-05T13:21:26.873Z,1.97
2022-10-05T13:24:34.095Z,0.60
2022-10-05T13:27:30.425Z,1.03
2022-10-05T13:29:59.933Z,0.90
2022-10-05T13:32:40.089Z,0.70
2022-10-05T13:35:25.814Z,0.60
2022-10-05T13:38:07.297Z,1.50
2022-10-05T13:40:49.823Z,0.60
2022-10-05T13:43:38.852Z,2.00
2022-10-05T13:46:44.374Z,0.57
2022-10-05T13:49:38.684Z,2.13
2022-10-05T13:52:08.831Z,1.40
2022-10-05T13:54:53.627Z,1.70
2022-10-05T13:57:36.089Z,0.40
2022-10-05T14:00:24.170Z,0.50
2022-10-05T14:02:56.645Z,2.70
2022-10-05T14:05:26.899Z,1.57
2022-10-05T14:08:02.764Z,1.20
2022-10-05T14:10:39.732Z,4.17
2022-10-05T14:13:40.901Z,0.47
2022-10-05T14:16:13.499Z,0.33
2022-10-05T14:18:58.405Z,0.60
2022-10-05T14:21:28.679Z,0.20
2022-10-05T14:23:58.771Z,0.20
2022-10-05T14:26:34.650Z,0.47
2022-10-05T14:29:15.180Z,1.43
2022-10-05T14:32:01.794Z,0.90
2022-10-05T14:34:35.046Z,0.50
2022-10-05T14:37:19.588Z,0.50
2022-10-05T14:39:51.871Z,0.60
2022-10-05T14:42:28.194Z,0.87
2022-10-05T14:44:59.647Z,0.53
2022-10-05T14:47:30.212Z,0.60
2022-10-05T14:50:19.234Z,1.40
2022-10-05T14:53:11.307Z,0.87
2022-10-05T14:55:55.728Z,1.07
2022-10-05T14:58:44.417Z,1.03
2022-10-05T15:01:17.804Z,0.63
2022-10-05T15:03:54.051Z,1.07
2022-10-05T15:06:32.919Z,2.33
2022-10-05T15:09:24.574Z,2.00
2022-10-05T15:11:57.399Z,1.57
2022-10-05T15:14:44.673Z,2.43
2022-10-05T15:17:20.647Z,0.97
2022-10-05T15:20:03.713Z,1.77
2022-10-05T15:22:46.239Z,1.00
2022-10-05T15:25:15.766Z,2.87
2022-10-05T15:28:08.397Z,1.83
2022-10-05T15:30:47.183Z,0.70
2022-10-05T15:33:39.939Z,2.37
2022-10-05T15:36:24.521Z,0.70
2022-10-05T15:39:06.136Z,0.97
2022-10-05T15:41:35.761Z,0.93
2022-10-05T15:44:40.233Z,0.93
2022-10-05T15:47:13.414Z,0.50
2022-10-05T15:50:01.423Z,0.30
2022-10-05T15:52:35.638Z,0.33
2022-10-05T15:55:32.958Z,2.77
2022-10-05T15:58:14.721Z,2.40
2022-10-05T16:00:54.485Z,1.80
2022-10-05T16:03:41.028Z,0.50
2022-10-05T16:06:42.970Z,0.57
2022-10-05T16:09:27.313Z,3.73
2022-10-05T16:12:09.674Z,2.23
2022-10-05T16:14:49.751Z,1.83
2022-10-05T16:17:35.297Z,1.17
2022-10-05T16:20:04.789Z,1.40
2022-10-05T16:22:48.404Z,2.43
2022-10-05T16:25:22.222Z,0.50
2022-10-05T16:28:23.007Z,1.77
2022-10-05T16:31:01.589Z,0.77
2022-10-05T16:33:37.130Z,1.20
2022-10-05T16:36:31.810Z,1.80
2022-10-05T16:39:24.000Z,1.20
2022-10-05T16:42:06.573Z,0.70
2022-10-05T16:44:46.419Z,1.20
2022-10-05T16:47:31.299Z,0.37
2022-10-05T16:50:19.490Z,1.20
2022-10-05T16:52:52.191Z,0.60
2022-10-05T16:55:42.114Z,2.17
2022-10-05T16:58:18.227Z,1.43
2022-10-05T17:01:08.508Z,2.23
2022-10-05T17:04:03.013Z,1.70
2022-10-05T17:06:37.030Z,1.53
2022-10-05T17:09:24.829Z,2.13
2022-10-05T17:12:26.640Z,3.07
2022-10-05T17:15:29.566Z,2.33
2022-10-05T17:18:11.277Z,0.50
2022-10-05T17:21:10.740Z,0.90
2022-10-05T17:23:54.037Z,0.73
2022-10-05T17:26:36.678Z,1.03
2022-10-05T17:29:16.868Z,1.07
2022-10-05T17:32:06.480Z,0.93
2022-10-05T17:34:36.369Z,1.43
2022-10-05T17:37:41.429Z,2.30
2022-10-05T17:40:38.206Z,1.77
2022-10-05T17:43:17.115Z,1.03
2022-10-05T17:45:43.813Z,3.67
2022-10-05T17:48:12.544Z,1.50
2022-10-05T17:51:05.783Z,2.37
2022-10-05T17:54:03.007Z,1.33
2022-10-05T17:56:31.531Z,2.50
2022-10-05T17:59:01.824Z,1.13
2022-10-05T18:01:40.137Z,1.93
2022-10-05T18:04:13.196Z,2.07
2022-10-05T18:06:44.624Z,1.07
2022-10-05T18:09:16.912Z,0.57
2022-10-05T18:11:48.001Z,1.40
2022-10-05T18:14:24.834Z,1.47
2022-10-05T18:17:11.693Z,2.53
2022-10-05T18:19:39.547Z,1.40
2022-10-05T18:22:17.929Z,1.07
2022-10-05T18:24:53.022Z,1.00
2022-10-05T18:27:34.127Z,2.20
2022-10-05T18:30:16.571Z,1.10
2022-10-05T18:33:05.076Z,2.83
2022-10-05T18:35:45.249Z,0.97
2022-10-05T18:38:12.160Z,0.80
2022-10-05T18:40:58.206Z,0.70
2022-10-05T18:43:35.926Z,0.70
2022-10-05T18:46:27.229Z,1.30
2022-10-05T18:49:14.786Z,1.77
2022-10-05T18:51:56.544Z,2.20
2022-10-05T18:54:51.148Z,0.97
2022-10-05T18:57:30.151Z,1.53
2022-10-05T19:00:16.439Z,1.73
2022-10-05T19:02:57.121Z,1.20
2022-10-05T19:05:47.416Z,2.53
2022-10-05T19:08:33.347Z,3.33
2022-10-05T19:11:32.021Z,1.37
2022-10-05T19:14:13.782Z,1.40
2022-10-05T19:16:49.735Z,0.97
2022-10-05T19:19:16.550Z,3.77
2022-10-05T19:22:14.456Z,3.40
2022-10-05T19:25:25.406Z,1.17
2022-10-05T19:28:10.156Z,2.77
2022-10-05T19:30:59.133Z,3.57
2022-10-05T19:33:34.938Z,3.03
2022-10-05T19:36:23.000Z,1.40
2022-10-05T19:38:59.612Z,2.83
2022-10-05T19:41:35.651Z,2.17
2022-10-05T19:44:13.829Z,2.10
2022-10-05T19:46:54.984Z,1.53
2022-10-05T19:49:47.386Z,2.10
2022-10-05T19:52:42.191Z,1.57
2022-10-05T19:55:16.354Z,1.93
2022-10-05T19:57:52.727Z,3.27
2022-10-05T20:00:24.677Z,2.10
2022-10-05T20:03:07.900Z,1.83
2022-10-05T20:05:34.979Z,1.63
2022-10-05T20:08:02.081Z,1.30
2022-10-05T20:10:30.879Z,9.80
2022-10-05T20:13:03.077Z,1.70
2022-10-05T20:15:54.308Z,3.70
2022-10-05T20:18:58.785Z,3.43
2022-10-05T20:21:43.486Z,1.80
2022-10-05T20:24:15.151Z,1.77
2022-10-05T20:27:06.616Z,1.60
2022-10-05T20:29:37.329Z,2.97
2022-10-05T20:32:12.442Z,2.00
2022-10-05T20:34:44.744Z,3.10
2022-10-05T20:37:14.147Z,1.80
2022-10-05T20:39:41.732Z,2.20
2022-10-05T20:42:09.454Z,1.33
2022-10-05T20:44:38.383Z,4.57
2022-10-05T20:47:08.742Z,1.60
2022-10-05T20:49:37.182Z,4.57
2022-10-05T20:52:04.944Z,2.70
2022-10-05T20:54:32.661Z,2.60
2022-10-05T20:56:59.449Z,1.67
2022-10-05T20:59:26.754Z,3.17
2022-10-05T21:01:53.481Z,2.43
2022-10-05T21:04:26.111Z,2.93
2022-10-05T21:06:54.038Z,1.70
2022-10-05T21:09:21.570Z,1.37
2022-10-05T21:11:52.739Z,1.73
2022-10-05T21:14:19.598Z,3.33
2022-10-05T21:16:46.608Z,1.97
2022-10-05T21:19:14.862Z,2.20
2022-10-05T21:21:43.610Z,1.90
2022-10-05T21:24:13.695Z,2.10
2022-10-05T21:26:41.777Z,2.43
2022-10-05T21:29:12.515Z,2.20
2022-10-05T21:31:40.318Z,2.30
2022-10-05T21:34:07.523Z,2.37
2022-10-05T21:36:34.635Z,4.03
2022-10-05T21:39:01.846Z,2.47
2022-10-05T21:41:28.642Z,2.77
2022-10-05T21:43:55.618Z,2.80
2022-10-05T21:46:26.537Z,3.40
2022-10-05T21:48:54.454Z,3.43
2022-10-05T21:51:24.009Z,3.10
2022-10-05T21:54:01.889Z,5.83
2022-10-05T21:56:34.763Z,3.13
2022-10-05T21:59:04.607Z,3.50
2022-10-05T22:01:31.341Z,4.67
2022-10-05T22:03:58.204Z,2.40
2022-10-05T22:06:25.003Z,2.83
2022-10-05T22:08:51.706Z,4.13
2022-10-05T22:11:18.612Z,2.23
2022-10-05T22:13:47.992Z,2.30
2022-10-05T22:16:16.416Z,2.90
2022-10-05T22:18:43.723Z,2.67
2022-10-05T22:21:12.138Z,4.10
2022-10-05T22:23:43.824Z,1.93
2022-10-05T22:26:13.190Z,1.80
2022-10-05T22:28:40.618Z,2.53
2022-10-05T22:31:09.531Z,3.97
2022-10-05T22:33:37.076Z,1.80
2022-10-05T22:36:05.394Z,1.90
2022-10-05T22:38:32.274Z,1.57
2022-10-05T22:40:59.096Z,4.47
2022-10-05T22:43:26.938Z,2.07
2022-10-05T22:45:54.281Z,3.53
2022-10-05T22:48:21.092Z,3.53
2022-10-05T22:50:47.964Z,1.83
2022-10-05T22:53:14.703Z,2.70
2022-10-05T22:55:41.306Z,2.13
2022-10-05T22:58:07.923Z,2.37
2022-10-05T23:00:56.504Z,1.80
2022-10-05T23:03:21.169Z,2.00
2022-10-05T23:05:47.811Z,1.70
2022-10-05T23:08:15.950Z,5.73
2022-10-05T23:10:43.294Z,2.87
2022-10-05T23:13:09.893Z,5.17
2022-10-05T23:15:36.551Z,1.47
2022-10-05T23:18:03.234Z,2.90
2022-10-05T23:20:29.978Z,1.97
2022-10-05T23:22:56.585Z,2.70
2022-10-05T23:25:23.295Z,3.37
2022-10-05T23:27:49.968Z,3.73
2022-10-05T23:30:16.889Z,1.70
2022-10-05T23:32:44.900Z,2.57
2022-10-05T23:35:13.017Z,2.10
2022-10-05T23:37:43.368Z,2.03
2022-10-05T23:40:12.273Z,2.20
2022-10-05T23:42:40.109Z,2.10
2022-10-05T23:45:08.744Z,2.33
2022-10-05T23:47:35.412Z,5.03
2022-10-05T23:50:02.531Z,1.90
2022-10-05T23:52:29.145Z,3.83
2022-10-05T23:54:55.810Z,3.00
2022-10-05T23:57:22.493Z,2.67
2022-10-05T23:59:50.263Z,2.20
